地図

経路データ

SID SEASON NUMBER BASIN SUBBASIN NAME ISO_TIME NATURE LAT LON WMO_WIND WMO_PRES WMO_AGENCY TRACK_TYPE DIST2LAND LANDFALL IFLAG USA_AGENCY USA_ATCF_ID USA_LAT USA_LON USA_RECORD USA_STATUS USA_WIND USA_PRES USA_SSHS USA_R34_NE USA_R34_SE USA_R34_SW USA_R34_NW USA_R50_NE USA_R50_SE USA_R50_SW USA_R50_NW USA_R64_NE USA_R64_SE USA_R64_SW USA_R64_NW USA_POCI USA_ROCI USA_RMW USA_EYE TOKYO_LAT TOKYO_LON TOKYO_GRADE TOKYO_WIND TOKYO_PRES TOKYO_R50_DIR TOKYO_R50_LONG TOKYO_R50_SHORT TOKYO_R30_DIR TOKYO_R30_LONG TOKYO_R30_SHORT TOKYO_LAND CMA_LAT CMA_LON CMA_CAT CMA_WIND CMA_PRES HKO_LAT HKO_LON HKO_CAT HKO_WIND HKO_PRES NEWDELHI_LAT NEWDELHI_LON NEWDELHI_GRADE NEWDELHI_WIND NEWDELHI_PRES NEWDELHI_CI NEWDELHI_DP NEWDELHI_POCI REUNION_LAT REUNION_LON REUNION_TYPE REUNION_WIND REUNION_PRES REUNION_TNUM REUNION_CI REUNION_RMW REUNION_R34_NE REUNION_R34_SE REUNION_R34_SW REUNION_R34_NW REUNION_R50_NE REUNION_R50_SE REUNION_R50_SW REUNION_R50_NW REUNION_R64_NE REUNION_R64_SE REUNION_R64_SW REUNION_R64_NW BOM_LAT BOM_LON BOM_TYPE BOM_WIND BOM_PRES BOM_TNUM BOM_CI BOM_RMW BOM_R34_NE BOM_R34_SE BOM_R34_SW BOM_R34_NW BOM_R50_NE BOM_R50_SE BOM_R50_SW BOM_R50_NW BOM_R64_NE BOM_R64_SE BOM_R64_SW BOM_R64_NW BOM_ROCI BOM_POCI BOM_EYE BOM_POS_METHOD BOM_PRES_METHOD NADI_LAT NADI_LON NADI_CAT NADI_WIND NADI_PRES WELLINGTON_LAT WELLINGTON_LON WELLINGTON_WIND WELLINGTON_PRES DS824_LAT DS824_LON DS824_STAGE DS824_WIND DS824_PRES TD9636_LAT TD9636_LON TD9636_STAGE TD9636_WIND TD9636_PRES TD9635_LAT TD9635_LON TD9635_WIND TD9635_PRES TD9635_ROCI NEUMANN_LAT NEUMANN_LON NEUMANN_CLASS NEUMANN_WIND NEUMANN_PRES MLC_LAT MLC_LON MLC_CLASS MLC_WIND MLC_PRES USA_GUST BOM_GUST BOM_GUST_PER REUNION_GUST REUNION_GUST_PER USA_SEAHGT USA_SEARAD_NE USA_SEARAD_SE USA_SEARAD_SW USA_SEARAD_NW STORM_SPEED STORM_DIR
1952244N15306 1952 60 NA NA BAKER 1952-08-31 06:00:00 TS 15.4000 -53.9000 50 hurdat_atl main 932 899 O_____________ hurdat_atl AL041952 15.4000 -53.9000 TS 50 0 14 301
1952244N15306 1952 60 NA NA BAKER 1952-08-31 09:00:00 TS 15.7503 -54.4996 main 906 879 P_____________ AL041952 15.7503 -54.4996 TS 52 0 14 301
1952244N15306 1952 60 NA NA BAKER 1952-08-31 12:00:00 TS 16.1000 -55.1000 55 hurdat_atl main 879 857 O_____________ hurdat_atl AL041952 16.1000 -55.1000 TS 55 0 14 301
1952244N15306 1952 60 NA NA BAKER 1952-08-31 15:00:00 TS 16.4498 -55.7002 main 857 848 P_____________ AL041952 16.4498 -55.7002 TS 57 0 14 301
1952244N15306 1952 60 NA NA BAKER 1952-08-31 18:00:00 TS 16.8000 -56.3000 60 hurdat_atl main 850 842 O_____________ hurdat_atl AL041952 16.8000 -56.3000 TS 60 0 13 301
1952244N15306 1952 60 NA NA BAKER 1952-08-31 21:00:00 TS 17.1498 -56.9002 main 842 840 P_____________ AL041952 17.1498 -56.9002 TS 60 0 13 301
1952244N15306 1952 60 NA NA BAKER 1952-09-01 00:00:00 TS 17.5000 -57.5000 60 hurdat_atl main 849 794 O_____________ hurdat_atl AL041952 17.5000 -57.5000 TS 60 0 13 301
1952244N15306 1952 60 NA NA BAKER 1952-09-01 03:00:00 TS 17.8349 -58.1153 main 794 728 P_____________ AL041952 17.8349 -58.1153 TS 60 0 13 301
1952244N15306 1952 60 NA NA BAKER 1952-09-01 06:00:00 TS 18.2000 -58.7000 60 1003 hurdat_atl main 728 675 O_____________ hurdat_atl AL041952 18.2000 -58.7000 TS 60 1003 0 13 307
1952244N15306 1952 60 NA NA BAKER 1952-09-01 09:00:00 TS 18.6274 -59.2302 main 675 625 P_____________ AL041952 18.6274 -59.2302 TS 60 0 13 314
1952244N15306 1952 60 NA NA BAKER 1952-09-01 12:00:00 TS 19.1000 -59.7000 60 hurdat_atl main 626 591 O_____________ hurdat_atl AL041952 19.1000 -59.7000 TS 60 0 13 319
1952244N15306 1952 60 NA NA BAKER 1952-09-01 15:00:00 TS 19.5924 -60.1227 main 593 564 P_____________ AL041952 19.5924 -60.1227 TS 62 0 13 323
1952244N15306 1952 60 NA NA BAKER 1952-09-01 18:00:00 TS 20.1000 -60.5000 65 hurdat_atl main 568 555 O_____________ hurdat_atl AL041952 20.1000 -60.5000 HU 65 1 12 326
1952244N15306 1952 60 NA NA BAKER 1952-09-01 21:00:00 TS 20.6073 -60.8429 main 560 544 P_____________ AL041952 20.6073 -60.8429 HU 65 1 12 327
1952244N15306 1952 60 NA NA BAKER 1952-09-02 00:00:00 TS 21.1000 -61.2000 65 hurdat_atl main 550 543 O_____________ hurdat_atl AL041952 21.1000 -61.2000 HU 65 1 12 322
1952244N15306 1952 60 NA NA BAKER 1952-09-02 03:00:00 TS 21.5650 -61.6351 main 550 541 P_____________ AL041952 21.5650 -61.6351 HU 65 1 12 317
1952244N15306 1952 60 NA NA BAKER 1952-09-02 06:00:00 TS 22.0000 -62.1000 65 hurdat_atl main 543 540 O_____________ hurdat_atl AL041952 22.0000 -62.1000 HU 65 1 12 315
1952244N15306 1952 60 NA NA BAKER 1952-09-02 09:00:00 TS 22.3997 -62.5281 main 551 545 P_____________ AL041952 22.3997 -62.5281 HU 65 1 12 314
1952244N15306 1952 60 NA NA BAKER 1952-09-02 12:00:00 TS 22.8000 -63.0000 65 993 hurdat_atl main 561 556 O_____________ hurdat_atl AL041952 22.8000 -63.0000 HU 65 993 1 13 311
1952244N15306 1952 60 NA NA BAKER 1952-09-02 15:00:00 TS 23.2501 -63.5849 main 586 582 P_____________ AL041952 23.2501 -63.5849 HU 65 994 1 14 309
1952244N15306 1952 60 NA NA BAKER 1952-09-02 18:00:00 TS 23.7000 -64.2000 65 996 hurdat_atl main 610 607 O_____________ hurdat_atl AL041952 23.7000 -64.2000 HU 65 996 1 14 309
1952244N15306 1952 60 NA NA BAKER 1952-09-02 21:00:00 TS 24.1148 -64.7653 main 642 642 P_____________ AL041952 24.1148 -64.7653 HU 65 1 13 309
1952244N15306 1952 60 NA NA BAKER 1952-09-03 00:00:00 TS 24.5000 -65.3000 65 hurdat_atl main 682 682 O_____________ hurdat_atl AL041952 24.5000 -65.3000 HU 65 1 12 308
1952244N15306 1952 60 NA NA BAKER 1952-09-03 03:00:00 TS 24.8574 -65.8228 main 722 717 P_____________ AL041952 24.8574 -65.8228 HU 65 1 11 308
1952244N15306 1952 60 NA NA BAKER 1952-09-03 06:00:00 TS 25.2000 -66.3000 65 hurdat_atl main 728 728 O_____________ hurdat_atl AL041952 25.2000 -66.3000 HU 65 1 11 311
1952244N15306 1952 60 NA NA BAKER 1952-09-03 09:00:00 TS 25.5572 -66.7078 main 751 746 P_____________ AL041952 25.5572 -66.7078 HU 65 1 10 314
1952244N15306 1952 60 NA NA BAKER 1952-09-03 12:00:00 TS 25.9000 -67.1000 65 993 hurdat_atl main 764 760 O_____________ hurdat_atl AL041952 25.9000 -67.1000 HU 65 993 1 10 310
1952244N15306 1952 60 NA NA BAKER 1952-09-03 15:00:00 TS 26.1849 -67.5356 main 780 777 P_____________ AL041952 26.1849 -67.5356 HU 65 993 1 10 307
1952244N15306 1952 60 NA NA BAKER 1952-09-03 18:00:00 TS 26.5000 -68.0000 65 993 hurdat_atl main 780 773 O_____________ hurdat_atl AL041952 26.5000 -68.0000 HU 65 993 1 11 310
1952244N15306 1952 60 NA NA BAKER 1952-09-03 21:00:00 TS 26.9201 -68.5074 main 783 783 P_____________ AL041952 26.9201 -68.5074 HU 65 1 13 315
1952244N15306 1952 60 NA NA BAKER 1952-09-04 00:00:00 TS 27.4000 -69.0000 65 hurdat_atl main 802 802 O_____________ hurdat_atl AL041952 27.4000 -69.0000 HU 65 1 13 320
1952244N15306 1952 60 NA NA BAKER 1952-09-04 03:00:00 TS 27.8849 -69.4303 main 832 827 P_____________ AL041952 27.8849 -69.4303 HU 67 1 12 325
1952244N15306 1952 60 NA NA BAKER 1952-09-04 06:00:00 TS 28.4000 -69.8000 70 hurdat_atl main 866 866 O_____________ hurdat_atl AL041952 28.4000 -69.8000 HU 70 1 12 329
1952244N15306 1952 60 NA NA BAKER 1952-09-04 09:00:00 TS 28.9349 -70.1376 main 884 815 P_____________ AL041952 28.9349 -70.1376 HU 70 1 12 334
1952244N15306 1952 60 NA NA BAKER 1952-09-04 12:00:00 TS 29.5000 -70.4000 70 hurdat_atl main 815 753 O_____________ hurdat_atl AL041952 29.5000 -70.4000 HU 70 1 12 342
1952244N15306 1952 60 NA NA BAKER 1952-09-04 15:00:00 TS 30.1149 -70.5803 main 753 701 P_____________ AL041952 30.1149 -70.5803 HU 70 1 12 348
1952244N15306 1952 60 NA NA BAKER 1952-09-04 18:00:00 TS 30.7000 -70.7000 70 983 hurdat_atl main 701 657 O_____________ hurdat_atl AL041952 30.7000 -70.7000 HU 70 983 1 11 350
1952244N15306 1952 60 NA NA BAKER 1952-09-04 21:00:00 TS 31.1950 -70.8077 main 657 621 P_____________ AL041952 31.1950 -70.8077 HU 70 1 9 349
1952244N15306 1952 60 NA NA BAKER 1952-09-05 00:00:00 TS 31.6000 -70.9000 70 hurdat_atl main 621 593 O_____________ hurdat_atl AL041952 31.6000 -70.9000 HU 70 1 8 347
1952244N15306 1952 60 NA NA BAKER 1952-09-05 03:00:00 TS 31.9300 -71.0075 main 593 567 P_____________ AL041952 31.9300 -71.0075 HU 70 1 6 344
1952244N15306 1952 60 NA NA BAKER 1952-09-05 06:00:00 TS 32.2000 -71.1000 70 hurdat_atl main 567 538 O_____________ hurdat_atl AL041952 32.2000 -71.1000 HU 70 1 6 344
1952244N15306 1952 60 NA NA BAKER 1952-09-05 09:00:00 TS 32.4650 -71.1799 main 538 524 P_____________ AL041952 32.4650 -71.1799 HU 70 1 5 350
1952244N15306 1952 60 NA NA BAKER 1952-09-05 12:00:00 TS 32.7000 -71.2000 70 hurdat_atl main 524 509 O_____________ hurdat_atl AL041952 32.7000 -71.2000 HU 70 1 5 4
1952244N15306 1952 60 NA NA BAKER 1952-09-05 15:00:00 TS 32.9150 -71.1301 main 516 509 P_____________ AL041952 32.9150 -71.1301 HU 70 1 4 23
1952244N15306 1952 60 NA NA BAKER 1952-09-05 18:00:00 TS 33.1000 -71.0000 70 983 hurdat_atl main 509 503 O_____________ hurdat_atl AL041952 33.1000 -71.0000 HU 70 983 1 4 34
1952244N15306 1952 60 NA NA BAKER 1952-09-05 21:00:00 TS 33.2575 -70.8575 main 504 504 P_____________ AL041952 33.2575 -70.8575 HU 72 1 4 40
1952244N15306 1952 60 NA NA BAKER 1952-09-06 00:00:00 TS 33.4000 -70.7000 75 hurdat_atl main 513 513 O_____________ hurdat_atl AL041952 33.4000 -70.7000 HU 75 1 4 41
1952244N15306 1952 60 NA NA BAKER 1952-09-06 03:00:00 TS 33.5273 -70.5796 main 515 509 P_____________ AL041952 33.5273 -70.5796 HU 75 1 4 40
1952244N15306 1952 60 NA NA BAKER 1952-09-06 06:00:00 TS 33.7000 -70.4000 75 hurdat_atl main 520 520 O_____________ hurdat_atl AL041952 33.7000 -70.4000 HU 75 1 6 44
1952244N15306 1952 60 NA NA BAKER 1952-09-06 09:00:00 TS 33.9626 -70.0800 main 530 530 P_____________ AL041952 33.9626 -70.0800 HU 75 1 8 44
1952244N15306 1952 60 NA NA BAKER 1952-09-06 12:00:00 TS 34.3000 -69.7000 75 981 hurdat_atl main 552 552 O_____________ hurdat_atl AL041952 34.3000 -69.7000 HU 75 981 1 9 40
1952244N15306 1952 60 NA NA BAKER 1952-09-06 15:00:00 TS 34.6621 -69.3790 main 565 565 P_____________ AL041952 34.6621 -69.3790 HU 77 979 1 10 36
1952244N15306 1952 60 NA NA BAKER 1952-09-06 18:00:00 TS 35.1000 -69.0000 80 978 hurdat_atl main 592 590 O_____________ hurdat_atl AL041952 35.1000 -69.0000 HU 80 978 1 12 36
1952244N15306 1952 60 NA NA BAKER 1952-09-06 21:00:00 TS 35.6041 -68.5381 main 630 630 P_____________ AL041952 35.6041 -68.5381 HU 85 2 14 39
1952244N15306 1952 60 NA NA BAKER 1952-09-07 00:00:00 TS 36.2000 -67.9000 90 hurdat_atl main 637 595 O_____________ hurdat_atl AL041952 36.2000 -67.9000 HU 90 2 18 43
1952244N15306 1952 60 NA NA BAKER 1952-09-07 03:00:00 TS 36.8843 -67.0544 main 589 564 P_____________ AL041952 36.8843 -67.0544 HU 92 2 21 47
1952244N15306 1952 60 NA NA BAKER 1952-09-07 06:00:00 TS 37.6000 -66.0000 95 hurdat_atl main 569 564 O_____________ hurdat_atl AL041952 37.6000 -66.0000 HU 95 2 22 52
1952244N15306 1952 60 NA NA BAKER 1952-09-07 09:00:00 TS 38.2402 -64.8580 main 582 531 P_____________ AL041952 38.2402 -64.8580 HU 95 2 24 56
1952244N15306 1952 60 NA NA BAKER 1952-09-07 12:00:00 TS 38.9000 -63.5000 95 hurdat_atl main 533 513 O_____________ hurdat_atl AL041952 38.9000 -63.5000 HU 95 2 27 60
1952244N15306 1952 60 NA NA BAKER 1952-09-07 15:00:00 TS 39.5895 -61.8845 main 517 517 P_____________ AL041952 39.5895 -61.8845 HU 95 2 30 60
1952244N15306 1952 60 NA NA BAKER 1952-09-07 18:00:00 TS 40.4000 -60.1000 95 969 hurdat_atl main 526 485 O_____________ hurdat_atl AL041952 40.4000 -60.1000 HU 95 969 2 32 57
1952244N15306 1952 60 NA NA BAKER 1952-09-07 21:00:00 TS 41.3421 -58.2934 main 488 467 P_____________ AL041952 41.3421 -58.2934 HU 92 2 35 53
1952244N15306 1952 60 NA NA BAKER 1952-09-08 00:00:00 ET 42.5000 -56.4000 90 hurdat_atl main 469 317 O_____________ hurdat_atl AL041952 42.5000 -56.4000 EX 90 -4 39 49
1952244N15306 1952 60 NA NA BAKER 1952-09-08 03:00:00 ET 43.9132 -54.3314 main 304 157 P_____________ AL041952 43.9132 -54.3314 EX 87 -4 41 46
1952244N15306 1952 60 NA NA BAKER 1952-09-08 06:00:00 ET 45.4000 -52.3000 85 hurdat_atl main 150 139 O_____________ hurdat_atl AL041952 45.4000 -52.3000 EX 85 -4 40 44
1952244N15306 1952 60 NA NA BAKER 1952-09-08 09:00:00 ET 46.7665 -50.4118 main 182 182 P_____________ AL041952 46.7665 -50.4118 EX 82 -4 35 42
1952244N15306 1952 60 NA NA BAKER 1952-09-08 12:00:00 ET 48.0000 -48.9000 80 hurdat_atl main 280 280 O_____________ hurdat_atl AL041952 48.0000 -48.9000 EX 80 -4 29 37
1952244N15306 1952 60 NA NA BAKER 1952-09-08 15:00:00 ET 49.0563 -47.8592 main 375 375 P_____________ AL041952 49.0563 -47.8592 EX 77 -4 23 28
1952244N15306 1952 60 NA NA BAKER 1952-09-08 18:00:00 ET 50.0000 -47.3000 75 hurdat_atl main 444 444 O_____________ hurdat_atl AL041952 50.0000 -47.3000 EX 75 -4 19 15
1952244N15306 1952 60 NA NA BAKER 1952-09-08 21:00:00 ET 50.8986 -47.0949 main 487 487 P_____________ AL041952 50.8986 -47.0949 EX 75 -4 18 6
1952244N15306 1952 60 NA NA BAKER 1952-09-09 00:00:00 ET 51.8000 -47.0000 75 hurdat_atl main 534 534 O_____________ hurdat_atl AL041952 51.8000 -47.0000 EX 75 -4 19 10
1952244N15306 1952 60 NA NA BAKER 1952-09-09 03:00:00 ET 52.7853 -46.5540 main 605 605 P_____________ AL041952 52.7853 -46.5540 EX 75 -4 21 17
1952244N15306 1952 60 NA NA BAKER 1952-09-09 06:00:00 ET 53.8000 -46.0000 75 hurdat_atl main 645 577 O_____________ hurdat_atl AL041952 53.8000 -46.0000 EX 75 -4 22 17
1952244N15306 1952 60 NA NA BAKER 1952-09-09 09:00:00 ET 54.8597 -45.4998 main 566 465 P_____________ AL041952 54.8597 -45.4998 EX 72 -4 21 16
1952244N15306 1952 60 NA NA BAKER 1952-09-09 12:00:00 ET 55.8000 -45.0000 70 hurdat_atl main 465 387 O_____________ hurdat_atl AL041952 55.8000 -45.0000 EX 70 -4 17 19
1952244N15306 1952 60 NA NA BAKER 1952-09-09 15:00:00 ET 56.4972 -44.4976 main 387 333 P_____________ AL041952 56.4972 -44.4976 EX 62 -4 13 25
1952244N15306 1952 60 NA NA BAKER 1952-09-09 18:00:00 ET 57.0000 -44.0000 55 hurdat_atl main 333 294 O_____________ hurdat_atl AL041952 57.0000 -44.0000 EX 55 -4 10 32
1952244N15306 1952 60 NA NA BAKER 1952-09-09 21:00:00 ET 57.3804 -43.5019 main 294 265 P_____________ AL041952 57.3804 -43.5019 EX 50 -4 9 38
1952244N15306 1952 60 NA NA BAKER 1952-09-10 00:00:00 ET 57.7000 -43.0000 45 hurdat_atl main 265 O_____________ hurdat_atl AL041952 57.7000 -43.0000 EX 45 -4 8 40

IBTrACS Databaseについて

本データベースは、米国NOAAが公開する1842年以降の世界の熱帯低気圧のベストトラックデータアーカイブInternational Best Track Archive for Climate Stewardship (IBTrACS)を、ウェブで閲覧しやすい形式に変換したものです。

最終更新日:2021-10-08